Terminal Aerodrome Forecast
Issued by NWS

Home | Current Version | Previous Version | Text Only | Print | Product List | Glossary On
Versions: 1 2 3 4 5 6 7 8 9 10 11 12 13 14 15 16 17 18 19 20 21 22 23
000
FTUS46 KSTO 261700 AAA
TAFSMF
TAF AMD
KSMF 261705Z 2617/2712 34008KT 1/2SM FG VV002
     FM261800 34008KT 3SM BR SCT003 BKN200
     FM262000 34005KT 5SM HZ OVC200
     FM271000 VRB03KT 2SM BR OVC150=

USA.gov is the U.S. government's official web portal to all federal, state and local government web resources and services.